Bakersville, North Carolina
Current Conditions -  °F | °C
As of 12:55 PM on Monday 22 Dec 2014 (Local Time) from K0A9 Reporting Station
Clear Clear  
Wind Chill: 55°   Ceiling: Unl
Heat Index: 55°   Visibility: 10mi
Dew Point: 41°   Wind: 9mph
Humidity: 58%   Direction: 110°ESE
Pressure: 29.94"   Gusts: NA
Location:  36.02°N, 82.16°W
Report Text: K0A9 221755Z AUTO 11008KT 10SM CLR 13/05 A2994 RMK
Loading
Personal Weather Stations






























Interactive Weather Map New forecast layout! Learn more

10-Day Weather Forecast

Advertisements
Track Severe Weather on mobile